Terminal Aerodrome Forecast
Issued by NWS Cleveland, OH

Home | Current Version | Previous Version | Graphics & Text | Print | Product List | Glossary On
Versions: 1 2 3 4 5 6 7 8 9 10 11 12 13
472
FTUS41 KCLE 201743
TAFMFD
TAF
KMFD 201743Z 2018/2118 23018G28KT P6SM SCT060
     FM202100 25015G25KT 6SM -SHRA VCTS BKN040CB
      TEMPO 2022/2102 27020G40KT 2SM TSRA OVC015CB
     FM210400 27012KT P6SM BKN018=

USA.gov is the U.S. government's official web portal to all federal, state and local government web resources and services.